NZY weather

North Island Naval Air Station-Halsey Field
San Diego, California, United States

Public forecast

Using degrees Fahrenheit for public forecast. Weather courtesy of forecast.io.

METAR (pilot weather report)

Retrieved 2019/04/22 21:52 UTC (34 minutes ago):

KNZY 222152Z 29010KT 10SM FEW030 FEW200 18/10 A2997 RMK AO2 SLP149 T01780100

TAF (pilot weather forecast)

Forecast is more than 12 hours old.

Retrieved 2015/10/15 23:42 UTC (4 years ago):

TAF COR KNZY 152300Z 1523/1623 30010KT 9999 FEW015 FEW030 SCT100 QNH2984INS TEMPO 1523/1604 SCT015 SCT030 BKN100 FM160400 VRB06KT 9999 FEW010 OVC020 QNH2988INS TEMPO 1611/1617 8000 BR BKN008 OVC020 FM161800 30012KT 9999 FEW015 SCT030 SCT110 QNH2987INS TX19/1613Z TN25/1621Z FS30021